sensor_id;sensor_type;location;lat;lon;timestamp;P1;durP1;ratioP1;P2;durP2;ratioP2
7833;SDS011;3962;42.696;23.354;2023-04-01T00:01:05;19.77;;;11.73;;
7833;SDS011;3962;42.696;23.354;2023-04-01T00:03:33;23.77;;;13.30;;
7833;SDS011;3962;42.696;23.354;2023-04-01T00:06:01;23.20;;;12.13;;
7833;SDS011;3962;42.696;23.354;2023-04-01T00:08:28;23.67;;;13.00;;
7833;SDS011;3962;42.696;23.354;2023-04-01T00:10:56;30.57;;;14.47;;
7833;SDS011;3962;42.696;23.354;2023-04-01T00:13:23;28.47;;;14.33;;
7833;SDS011;3962;42.696;23.354;2023-04-01T00:15:52;23.23;;;13.07;;
7833;SDS011;3962;42.696;23.354;2023-04-01T00:18:20;22.47;;;12.27;;
7833;SDS011;3962;42.696;23.354;2023-04-01T00:20:49;21.13;;;12.37;;
7833;SDS011;3962;42.696;23.354;2023-04-01T00:23:17;26.13;;;13.13;;
7833;SDS011;3962;42.696;23.354;2023-04-01T00:25:46;18.73;;;11.00;;
7833;SDS011;3962;42.696;23.354;2023-04-01T00:28:14;20.60;;;11.90;;
7833;SDS011;3962;42.696;23.354;2023-04-01T00:30:41;24.80;;;11.10;;
7833;SDS011;3962;42.696;23.354;2023-04-01T00:33:09;20.17;;;11.23;;
7833;SDS011;3962;42.696;23.354;2023-04-01T00:35:37;18.67;;;11.67;;
7833;SDS011;3962;42.696;23.354;2023-04-01T00:38:04;20.27;;;11.10;;
7833;SDS011;3962;42.696;23.354;2023-04-01T00:40:32;20.53;;;10.97;;
7833;SDS011;3962;42.696;23.354;2023-04-01T00:43:00;18.07;;;11.23;;
7833;SDS011;3962;42.696;23.354;2023-04-01T00:45:29;20.57;;;12.13;;
7833;SDS011;3962;42.696;23.354;2023-04-01T00:47:58;23.67;;;11.40;;
7833;SDS011;3962;42.696;23.354;2023-04-01T00:50:29;21.50;;;11.33;;
7833;SDS011;3962;42.696;23.354;2023-04-01T00:52:58;22.73;;;11.50;;
7833;SDS011;3962;42.696;23.354;2023-04-01T00:55:27;19.00;;;11.33;;
7833;SDS011;3962;42.696;23.354;2023-04-01T00:57:57;21.83;;;11.13;;
7833;SDS011;3962;42.696;23.354;2023-04-01T01:00:26;24.37;;;12.00;;
7833;SDS011;3962;42.696;23.354;2023-04-01T01:02:53;19.73;;;11.83;;
7833;SDS011;3962;42.696;23.354;2023-04-01T01:05:28;19.57;;;11.50;;
7833;SDS011;3962;42.696;23.354;2023-04-01T01:08:06;18.43;;;10.03;;
7833;SDS011;3962;42.696;23.354;2023-04-01T01:10:42;19.73;;;9.70;;
7833;SDS011;3962;42.696;23.354;2023-04-01T01:13:15;21.67;;;10.27;;
7833;SDS011;3962;42.696;23.354;2023-04-01T01:15:47;20.03;;;10.17;;
7833;SDS011;3962;42.696;23.354;2023-04-01T01:18:19;16.47;;;10.20;;
7833;SDS011;3962;42.696;23.354;2023-04-01T01:21:11;17.47;;;8.97;;
7833;SDS011;3962;42.696;23.354;2023-04-01T01:24:08;19.90;;;11.53;;
7833;SDS011;3962;42.696;23.354;2023-04-01T01:26:51;17.53;;;9.87;;
7833;SDS011;3962;42.696;23.354;2023-04-01T01:32:38;61.77;;;15.83;;
7833;SDS011;3962;42.696;23.354;2023-04-01T01:35:22;27.00;;;11.23;;
7833;SDS011;3962;42.696;23.354;2023-04-01T01:37:54;21.17;;;10.60;;
7833;SDS011;3962;42.696;23.354;2023-04-01T01:40:24;20.47;;;10.67;;
7833;SDS011;3962;42.696;23.354;2023-04-01T01:42:54;24.13;;;10.57;;
7833;SDS011;3962;42.696;23.354;2023-04-01T01:45:24;18.07;;;9.53;;
7833;SDS011;3962;42.696;23.354;2023-04-01T01:47:52;17.07;;;9.77;;
7833;SDS011;3962;42.696;23.354;2023-04-01T01:50:22;27.73;;;10.00;;
7833;SDS011;3962;42.696;23.354;2023-04-01T01:52:51;14.67;;;8.67;;
7833;SDS011;3962;42.696;23.354;2023-04-01T01:55:28;19.20;;;8.43;;
7833;SDS011;3962;42.696;23.354;2023-04-01T01:57:56;16.20;;;8.97;;
7833;SDS011;3962;42.696;23.354;2023-04-01T02:00:25;15.00;;;9.03;;
7833;SDS011;3962;42.696;23.354;2023-04-01T02:02:53;22.53;;;10.40;;
7833;SDS011;3962;42.696;23.354;2023-04-01T02:05:21;17.00;;;9.37;;
7833;SDS011;3962;42.696;23.354;2023-04-01T02:07:53;17.03;;;9.23;;
7833;SDS011;3962;42.696;23.354;2023-04-01T02:10:26;19.80;;;9.23;;
7833;SDS011;3962;42.696;23.354;2023-04-01T02:12:59;16.13;;;8.53;;
7833;SDS011;3962;42.696;23.354;2023-04-01T02:15:32;16.20;;;9.20;;
7833;SDS011;3962;42.696;23.354;2023-04-01T02:18:07;18.80;;;8.80;;
7833;SDS011;3962;42.696;23.354;2023-04-01T02:20:35;14.97;;;8.40;;
7833;SDS011;3962;42.696;23.354;2023-04-01T02:23:06;15.33;;;8.00;;
7833;SDS011;3962;42.696;23.354;2023-04-01T02:25:34;14.63;;;7.87;;
7833;SDS011;3962;42.696;23.354;2023-04-01T02:28:04;18.27;;;8.20;;
7833;SDS011;3962;42.696;23.354;2023-04-01T02:30:33;18.70;;;8.23;;
7833;SDS011;3962;42.696;23.354;2023-04-01T02:33:02;20.50;;;7.93;;
7833;SDS011;3962;42.696;23.354;2023-04-01T02:35:32;14.67;;;8.40;;
7833;SDS011;3962;42.696;23.354;2023-04-01T02:38:01;15.20;;;8.83;;
7833;SDS011;3962;42.696;23.354;2023-04-01T02:40:29;16.17;;;8.60;;
7833;SDS011;3962;42.696;23.354;2023-04-01T02:43:06;20.13;;;9.10;;
7833;SDS011;3962;42.696;23.354;2023-04-01T02:45:33;20.63;;;10.60;;
7833;SDS011;3962;42.696;23.354;2023-04-01T02:48:00;23.23;;;12.30;;
7833;SDS011;3962;42.696;23.354;2023-04-01T02:50:27;24.63;;;11.53;;
7833;SDS011;3962;42.696;23.354;2023-04-01T02:52:53;19.23;;;11.50;;
7833;SDS011;3962;42.696;23.354;2023-04-01T02:55:22;23.20;;;11.53;;
7833;SDS011;3962;42.696;23.354;2023-04-01T02:57:49;22.07;;;10.30;;
7833;SDS011;3962;42.696;23.354;2023-04-01T03:00:16;20.87;;;10.20;;
7833;SDS011;3962;42.696;23.354;2023-04-01T03:02:43;20.50;;;10.00;;
7833;SDS011;3962;42.696;23.354;2023-04-01T03:05:10;20.47;;;10.13;;
7833;SDS011;3962;42.696;23.354;2023-04-01T03:07:37;17.00;;;10.90;;
7833;SDS011;3962;42.696;23.354;2023-04-01T03:10:05;17.97;;;10.10;;
7833;SDS011;3962;42.696;23.354;2023-04-01T03:12:34;19.37;;;10.07;;
7833;SDS011;3962;42.696;23.354;2023-04-01T03:15:01;17.60;;;9.57;;
7833;SDS011;3962;42.696;23.354;2023-04-01T03:17:28;16.87;;;9.97;;
7833;SDS011;3962;42.696;23.354;2023-04-01T03:19:55;20.03;;;9.80;;
7833;SDS011;3962;42.696;23.354;2023-04-01T03:22:22;32.23;;;12.30;;
7833;SDS011;3962;42.696;23.354;2023-04-01T03:24:48;19.90;;;10.33;;
7833;SDS011;3962;42.696;23.354;2023-04-01T03:27:15;21.50;;;9.93;;
7833;SDS011;3962;42.696;23.354;2023-04-01T03:29:44;20.23;;;10.60;;
7833;SDS011;3962;42.696;23.354;2023-04-01T03:32:10;18.03;;;10.07;;
7833;SDS011;3962;42.696;23.354;2023-04-01T03:34:37;21.73;;;10.50;;
7833;SDS011;3962;42.696;23.354;2023-04-01T03:37:04;18.73;;;10.53;;
7833;SDS011;3962;42.696;23.354;2023-04-01T03:39:31;26.03;;;14.97;;
7833;SDS011;3962;42.696;23.354;2023-04-01T03:41:58;28.00;;;14.43;;
7833;SDS011;3962;42.696;23.354;2023-04-01T03:44:25;18.03;;;10.50;;
7833;SDS011;3962;42.696;23.354;2023-04-01T03:46:54;17.73;;;11.00;;
7833;SDS011;3962;42.696;23.354;2023-04-01T03:49:20;17.70;;;11.20;;
7833;SDS011;3962;42.696;23.354;2023-04-01T03:51:47;22.37;;;11.43;;
7833;SDS011;3962;42.696;23.354;2023-04-01T03:54:14;20.10;;;9.90;;
7833;SDS011;3962;42.696;23.354;2023-04-01T03:56:42;16.83;;;10.23;;
7833;SDS011;3962;42.696;23.354;2023-04-01T03:59:08;17.73;;;10.40;;
7833;SDS011;3962;42.696;23.354;2023-04-01T04:01:35;18.67;;;11.20;;
7833;SDS011;3962;42.696;23.354;2023-04-01T04:04:04;14.70;;;10.33;;
7833;SDS011;3962;42.696;23.354;2023-04-01T04:06:31;17.83;;;10.10;;
7833;SDS011;3962;42.696;23.354;2023-04-01T04:08:59;17.20;;;10.17;;
7833;SDS011;3962;42.696;23.354;2023-04-01T04:11:26;18.00;;;10.43;;
7833;SDS011;3962;42.696;23.354;2023-04-01T04:13:52;21.00;;;11.37;;
7833;SDS011;3962;42.696;23.354;2023-04-01T04:16:19;18.60;;;11.30;;
7833;SDS011;3962;42.696;23.354;2023-04-01T04:18:46;24.23;;;12.67;;
7833;SDS011;3962;42.696;23.354;2023-04-01T04:21:14;22.87;;;13.77;;
7833;SDS011;3962;42.696;23.354;2023-04-01T04:23:41;19.93;;;13.57;;
7833;SDS011;3962;42.696;23.354;2023-04-01T04:26:09;26.97;;;14.50;;
7833;SDS011;3962;42.696;23.354;2023-04-01T04:28:38;25.77;;;13.30;;
7833;SDS011;3962;42.696;23.354;2023-04-01T04:31:05;20.70;;;11.37;;
7833;SDS011;3962;42.696;23.354;2023-04-01T04:33:33;16.57;;;9.87;;
7833;SDS011;3962;42.696;23.354;2023-04-01T04:36:00;15.83;;;10.10;;
7833;SDS011;3962;42.696;23.354;2023-04-01T04:38:29;14.93;;;9.87;;
7833;SDS011;3962;42.696;23.354;2023-04-01T04:40:57;18.50;;;11.03;;
7833;SDS011;3962;42.696;23.354;2023-04-01T04:43:24;18.63;;;10.40;;
7833;SDS011;3962;42.696;23.354;2023-04-01T04:45:51;21.43;;;10.37;;
7833;SDS011;3962;42.696;23.354;2023-04-01T04:48:18;17.20;;;10.60;;
7833;SDS011;3962;42.696;23.354;2023-04-01T04:50:46;18.00;;;10.77;;
7833;SDS011;3962;42.696;23.354;2023-04-01T04:53:14;19.17;;;9.87;;
7833;SDS011;3962;42.696;23.354;2023-04-01T04:55:46;21.27;;;14.53;;
7833;SDS011;3962;42.696;23.354;2023-04-01T04:58:14;19.90;;;10.53;;
7833;SDS011;3962;42.696;23.354;2023-04-01T05:00:41;17.70;;;10.03;;
7833;SDS011;3962;42.696;23.354;2023-04-01T05:03:08;21.80;;;10.90;;
7833;SDS011;3962;42.696;23.354;2023-04-01T05:05:36;20.47;;;10.07;;
7833;SDS011;3962;42.696;23.354;2023-04-01T05:08:03;36.53;;;16.23;;
7833;SDS011;3962;42.696;23.354;2023-04-01T05:10:30;22.90;;;11.63;;
7833;SDS011;3962;42.696;23.354;2023-04-01T05:12:58;21.70;;;11.07;;
7833;SDS011;3962;42.696;23.354;2023-04-01T05:15:25;16.30;;;10.10;;
7833;SDS011;3962;42.696;23.354;2023-04-01T05:17:52;24.30;;;10.23;;
7833;SDS011;3962;42.696;23.354;2023-04-01T05:20:18;25.97;;;11.37;;
7833;SDS011;3962;42.696;23.354;2023-04-01T05:22:45;29.30;;;11.10;;
7833;SDS011;3962;42.696;23.354;2023-04-01T05:25:12;27.30;;;10.30;;
7833;SDS011;3962;42.696;23.354;2023-04-01T05:27:39;18.83;;;10.73;;
7833;SDS011;3962;42.696;23.354;2023-04-01T05:30:08;14.57;;;8.80;;
7833;SDS011;3962;42.696;23.354;2023-04-01T05:32:35;22.50;;;10.40;;
7833;SDS011;3962;42.696;23.354;2023-04-01T05:35:03;20.90;;;10.77;;
7833;SDS011;3962;42.696;23.354;2023-04-01T05:37:30;23.63;;;12.07;;
7833;SDS011;3962;42.696;23.354;2023-04-01T05:39:57;32.40;;;13.40;;
7833;SDS011;3962;42.696;23.354;2023-04-01T05:42:24;28.53;;;14.43;;
7833;SDS011;3962;42.696;23.354;2023-04-01T05:44:51;28.57;;;12.90;;
7833;SDS011;3962;42.696;23.354;2023-04-01T05:47:19;23.63;;;10.43;;
7833;SDS011;3962;42.696;23.354;2023-04-01T05:49:46;24.37;;;11.57;;
7833;SDS011;3962;42.696;23.354;2023-04-01T05:52:13;22.77;;;9.63;;
7833;SDS011;3962;42.696;23.354;2023-04-01T05:54:41;15.03;;;7.37;;
7833;SDS011;3962;42.696;23.354;2023-04-01T05:57:07;16.90;;;8.07;;
7833;SDS011;3962;42.696;23.354;2023-04-01T05:59:34;18.00;;;9.60;;
7833;SDS011;3962;42.696;23.354;2023-04-01T06:02:01;12.77;;;7.27;;
7833;SDS011;3962;42.696;23.354;2023-04-01T06:04:31;12.77;;;7.00;;
7833;SDS011;3962;42.696;23.354;2023-04-01T06:07:05;12.70;;;7.50;;
7833;SDS011;3962;42.696;23.354;2023-04-01T06:09:37;13.33;;;7.23;;
7833;SDS011;3962;42.696;23.354;2023-04-01T06:15:13;12.30;;;6.77;;
7833;SDS011;3962;42.696;23.354;2023-04-01T06:17:56;10.97;;;6.63;;
7833;SDS011;3962;42.696;23.354;2023-04-01T06:20:39;8.17;;;5.60;;
7833;SDS011;3962;42.696;23.354;2023-04-01T06:23:15;12.53;;;6.40;;
7833;SDS011;3962;42.696;23.354;2023-04-01T06:25:59;9.70;;;6.77;;
7833;SDS011;3962;42.696;23.354;2023-04-01T06:28:49;13.10;;;6.40;;
7833;SDS011;3962;42.696;23.354;2023-04-01T06:31:36;11.07;;;5.67;;
7833;SDS011;3962;42.696;23.354;2023-04-01T06:34:17;12.23;;;5.60;;
7833;SDS011;3962;42.696;23.354;2023-04-01T06:37:01;14.63;;;6.33;;
7833;SDS011;3962;42.696;23.354;2023-04-01T06:39:47;7.50;;;5.03;;
7833;SDS011;3962;42.696;23.354;2023-04-01T06:42:28;11.73;;;5.73;;
7833;SDS011;3962;42.696;23.354;2023-04-01T06:45:07;11.47;;;5.83;;
7833;SDS011;3962;42.696;23.354;2023-04-01T06:47:48;17.67;;;6.73;;
7833;SDS011;3962;42.696;23.354;2023-04-01T06:50:26;10.83;;;6.10;;
7833;SDS011;3962;42.696;23.354;2023-04-01T06:53:00;12.03;;;6.00;;
7833;SDS011;3962;42.696;23.354;2023-04-01T06:55:34;13.67;;;6.20;;
7833;SDS011;3962;42.696;23.354;2023-04-01T06:58:11;14.77;;;6.97;;
7833;SDS011;3962;42.696;23.354;2023-04-01T07:00:45;12.60;;;5.80;;
7833;SDS011;3962;42.696;23.354;2023-04-01T07:03:17;16.20;;;6.23;;
7833;SDS011;3962;42.696;23.354;2023-04-01T07:05:48;15.17;;;6.87;;
7833;SDS011;3962;42.696;23.354;2023-04-01T07:08:17;12.23;;;6.03;;
7833;SDS011;3962;42.696;23.354;2023-04-01T07:10:50;14.43;;;5.87;;
7833;SDS011;3962;42.696;23.354;2023-04-01T07:13:22;13.00;;;5.50;;
7833;SDS011;3962;42.696;23.354;2023-04-01T07:15:58;16.00;;;6.00;;
7833;SDS011;3962;42.696;23.354;2023-04-01T07:18:34;13.93;;;6.40;;
7833;SDS011;3962;42.696;23.354;2023-04-01T07:21:05;13.10;;;6.13;;
7833;SDS011;3962;42.696;23.354;2023-04-01T07:23:45;13.70;;;6.17;;
7833;SDS011;3962;42.696;23.354;2023-04-01T07:26:16;10.37;;;6.33;;
7833;SDS011;3962;42.696;23.354;2023-04-01T07:28:45;10.60;;;6.87;;
7833;SDS011;3962;42.696;23.354;2023-04-01T07:31:15;13.40;;;5.60;;
7833;SDS011;3962;42.696;23.354;2023-04-01T07:33:53;10.27;;;5.17;;
7833;SDS011;3962;42.696;23.354;2023-04-01T07:36:29;13.50;;;4.83;;
7833;SDS011;3962;42.696;23.354;2023-04-01T07:39:06;14.43;;;5.40;;
7833;SDS011;3962;42.696;23.354;2023-04-01T07:41:45;12.43;;;5.80;;
7833;SDS011;3962;42.696;23.354;2023-04-01T07:44:20;19.57;;;6.37;;
7833;SDS011;3962;42.696;23.354;2023-04-01T07:47:14;8.83;;;5.33;;
7833;SDS011;3962;42.696;23.354;2023-04-01T07:49:54;9.47;;;4.47;;
7833;SDS011;3962;42.696;23.354;2023-04-01T07:52:32;12.57;;;5.60;;
7833;SDS011;3962;42.696;23.354;2023-04-01T07:55:08;11.20;;;5.60;;
7833;SDS011;3962;42.696;23.354;2023-04-01T07:57:43;13.63;;;4.73;;
7833;SDS011;3962;42.696;23.354;2023-04-01T08:00:18;9.60;;;4.40;;
7833;SDS011;3962;42.696;23.354;2023-04-01T08:02:51;12.27;;;4.83;;
7833;SDS011;3962;42.696;23.354;2023-04-01T08:05:32;11.80;;;4.13;;
7833;SDS011;3962;42.696;23.354;2023-04-01T08:08:08;7.20;;;4.23;;
7833;SDS011;3962;42.696;23.354;2023-04-01T08:10:46;7.57;;;3.83;;
7833;SDS011;3962;42.696;23.354;2023-04-01T08:13:20;10.70;;;4.73;;
7833;SDS011;3962;42.696;23.354;2023-04-01T08:15:57;8.30;;;4.77;;
7833;SDS011;3962;42.696;23.354;2023-04-01T08:18:34;19.63;;;5.37;;
7833;SDS011;3962;42.696;23.354;2023-04-01T08:21:08;13.53;;;7.33;;
7833;SDS011;3962;42.696;23.354;2023-04-01T08:23:40;20.57;;;10.53;;
7833;SDS011;3962;42.696;23.354;2023-04-01T08:26:12;13.60;;;8.97;;
7833;SDS011;3962;42.696;23.354;2023-04-01T08:28:46;18.37;;;8.67;;
7833;SDS011;3962;42.696;23.354;2023-04-01T08:31:18;13.30;;;6.40;;
7833;SDS011;3962;42.696;23.354;2023-04-01T08:33:50;14.93;;;6.67;;
7833;SDS011;3962;42.696;23.354;2023-04-01T08:36:20;13.77;;;6.37;;
7833;SDS011;3962;42.696;23.354;2023-04-01T08:38:51;14.00;;;6.47;;
7833;SDS011;3962;42.696;23.354;2023-04-01T08:41:28;11.83;;;6.17;;
7833;SDS011;3962;42.696;23.354;2023-04-01T08:44:27;8.10;;;3.80;;
7833;SDS011;3962;42.696;23.354;2023-04-01T08:47:24;9.33;;;4.53;;
7833;SDS011;3962;42.696;23.354;2023-04-01T08:50:12;9.80;;;4.40;;
7833;SDS011;3962;42.696;23.354;2023-04-01T08:53:03;7.87;;;4.13;;
7833;SDS011;3962;42.696;23.354;2023-04-01T08:55:39;7.17;;;3.83;;
7833;SDS011;3962;42.696;23.354;2023-04-01T08:58:19;9.67;;;3.93;;
7833;SDS011;3962;42.696;23.354;2023-04-01T09:01:03;8.67;;;4.00;;
7833;SDS011;3962;42.696;23.354;2023-04-01T09:06:40;8.40;;;3.67;;
7833;SDS011;3962;42.696;23.354;2023-04-01T09:09:38;7.30;;;3.50;;
7833;SDS011;3962;42.696;23.354;2023-04-01T09:15:51;6.37;;;3.23;;
7833;SDS011;3962;42.696;23.354;2023-04-01T09:18:45;11.27;;;4.53;;
7833;SDS011;3962;42.696;23.354;2023-04-01T09:21:42;10.80;;;4.57;;
7833;SDS011;3962;42.696;23.354;2023-04-01T09:27:32;10.90;;;4.63;;
7833;SDS011;3962;42.696;23.354;2023-04-01T09:36:21;4.63;;;2.60;;
7833;SDS011;3962;42.696;23.354;2023-04-01T09:39:10;11.63;;;3.63;;
7833;SDS011;3962;42.696;23.354;2023-04-01T09:41:53;9.43;;;3.40;;
7833;SDS011;3962;42.696;23.354;2023-04-01T09:44:43;8.83;;;3.87;;
7833;SDS011;3962;42.696;23.354;2023-04-01T09:47:23;5.30;;;3.13;;
7833;SDS011;3962;42.696;23.354;2023-04-01T09:50:20;5.17;;;3.17;;
7833;SDS011;3962;42.696;23.354;2023-04-01T09:53:04;7.33;;;3.57;;
7833;SDS011;3962;42.696;23.354;2023-04-01T09:56:00;4.90;;;3.20;;
7833;SDS011;3962;42.696;23.354;2023-04-01T09:58:54;10.17;;;3.83;;
7833;SDS011;3962;42.696;23.354;2023-04-01T10:04:56;23.23;;;5.30;;
7833;SDS011;3962;42.696;23.354;2023-04-01T10:07:46;15.63;;;4.40;;
7833;SDS011;3962;42.696;23.354;2023-04-01T10:10:46;8.90;;;4.20;;
7833;SDS011;3962;42.696;23.354;2023-04-01T10:13:30;9.80;;;4.47;;
7833;SDS011;3962;42.696;23.354;2023-04-01T10:16:26;15.40;;;5.43;;
7833;SDS011;3962;42.696;23.354;2023-04-01T10:28:26;6.87;;;3.20;;
7833;SDS011;3962;42.696;23.354;2023-04-01T10:31:35;6.10;;;3.57;;
7833;SDS011;3962;42.696;23.354;2023-04-01T10:34:34;9.27;;;4.37;;
7833;SDS011;3962;42.696;23.354;2023-04-01T10:37:23;7.03;;;3.80;;
7833;SDS011;3962;42.696;23.354;2023-04-01T10:40:16;16.87;;;4.23;;
7833;SDS011;3962;42.696;23.354;2023-04-01T10:46:10;9.37;;;4.43;;
7833;SDS011;3962;42.696;23.354;2023-04-01T10:52:24;8.50;;;4.83;;
7833;SDS011;3962;42.696;23.354;2023-04-01T10:55:22;8.10;;;4.33;;
7833;SDS011;3962;42.696;23.354;2023-04-01T11:01:24;16.07;;;5.30;;
7833;SDS011;3962;42.696;23.354;2023-04-01T11:22:34;11.97;;;5.97;;
7833;SDS011;3962;42.696;23.354;2023-04-01T11:28:18;7.93;;;5.83;;
7833;SDS011;3962;42.696;23.354;2023-04-01T11:31:08;12.23;;;5.97;;
7833;SDS011;3962;42.696;23.354;2023-04-01T11:33:51;12.20;;;5.50;;
7833;SDS011;3962;42.696;23.354;2023-04-01T11:36:29;14.73;;;6.30;;
7833;SDS011;3962;42.696;23.354;2023-04-01T11:39:13;9.53;;;3.10;;
7833;SDS011;3962;42.696;23.354;2023-04-01T11:41:49;13.47;;;2.80;;
7833;SDS011;3962;42.696;23.354;2023-04-01T11:44:23;6.60;;;3.10;;
7833;SDS011;3962;42.696;23.354;2023-04-01T11:46:59;12.77;;;3.67;;
7833;SDS011;3962;42.696;23.354;2023-04-01T11:49:46;9.83;;;2.83;;
7833;SDS011;3962;42.696;23.354;2023-04-01T11:52:30;7.70;;;2.87;;
7833;SDS011;3962;42.696;23.354;2023-04-01T11:55:19;12.27;;;3.33;;
7833;SDS011;3962;42.696;23.354;2023-04-01T12:01:12;4.60;;;2.90;;
7833;SDS011;3962;42.696;23.354;2023-04-01T12:07:01;8.23;;;3.87;;
7833;SDS011;3962;42.696;23.354;2023-04-01T12:09:36;11.60;;;3.83;;
7833;SDS011;3962;42.696;23.354;2023-04-01T12:12:15;12.60;;;3.70;;
7833;SDS011;3962;42.696;23.354;2023-04-01T12:14:50;7.23;;;4.13;;
7833;SDS011;3962;42.696;23.354;2023-04-01T12:17:30;10.30;;;4.33;;
7833;SDS011;3962;42.696;23.354;2023-04-01T12:20:11;12.73;;;5.00;;
7833;SDS011;3962;42.696;23.354;2023-04-01T12:22:55;7.90;;;4.43;;
7833;SDS011;3962;42.696;23.354;2023-04-01T12:25:39;12.83;;;4.37;;
7833;SDS011;3962;42.696;23.354;2023-04-01T12:28:29;6.93;;;3.90;;
7833;SDS011;3962;42.696;23.354;2023-04-01T12:31:14;7.27;;;3.80;;
7833;SDS011;3962;42.696;23.354;2023-04-01T12:34:05;10.33;;;3.90;;
7833;SDS011;3962;42.696;23.354;2023-04-01T12:36:52;8.23;;;4.20;;
7833;SDS011;3962;42.696;23.354;2023-04-01T12:39:36;6.63;;;4.27;;
7833;SDS011;3962;42.696;23.354;2023-04-01T12:42:18;10.43;;;4.57;;
7833;SDS011;3962;42.696;23.354;2023-04-01T12:45:07;9.33;;;5.30;;
7833;SDS011;3962;42.696;23.354;2023-04-01T12:51:08;12.10;;;5.30;;
7833;SDS011;3962;42.696;23.354;2023-04-01T12:54:02;11.27;;;4.57;;
7833;SDS011;3962;42.696;23.354;2023-04-01T12:56:53;8.60;;;3.93;;
7833;SDS011;3962;42.696;23.354;2023-04-01T12:59:42;5.77;;;3.47;;
7833;SDS011;3962;42.696;23.354;2023-04-01T13:02:30;7.97;;;4.23;;
7833;SDS011;3962;42.696;23.354;2023-04-01T13:05:18;7.53;;;4.20;;
7833;SDS011;3962;42.696;23.354;2023-04-01T13:08:06;9.03;;;3.70;;
7833;SDS011;3962;42.696;23.354;2023-04-01T13:10:57;8.90;;;5.27;;
7833;SDS011;3962;42.696;23.354;2023-04-01T13:13:40;7.93;;;4.57;;
7833;SDS011;3962;42.696;23.354;2023-04-01T13:16:22;9.70;;;5.87;;
7833;SDS011;3962;42.696;23.354;2023-04-01T13:18:57;10.63;;;5.40;;
7833;SDS011;3962;42.696;23.354;2023-04-01T13:21:34;8.70;;;5.27;;
7833;SDS011;3962;42.696;23.354;2023-04-01T13:24:18;11.00;;;4.60;;
7833;SDS011;3962;42.696;23.354;2023-04-01T13:27:04;10.90;;;6.40;;
7833;SDS011;3962;42.696;23.354;2023-04-01T13:29:38;8.33;;;4.87;;
7833;SDS011;3962;42.696;23.354;2023-04-01T13:32:18;6.37;;;4.33;;
7833;SDS011;3962;42.696;23.354;2023-04-01T13:35:00;11.73;;;6.43;;
7833;SDS011;3962;42.696;23.354;2023-04-01T13:37:44;8.00;;;4.77;;
7833;SDS011;3962;42.696;23.354;2023-04-01T13:40:23;12.23;;;5.53;;
7833;SDS011;3962;42.696;23.354;2023-04-01T13:43:02;9.17;;;5.37;;
7833;SDS011;3962;42.696;23.354;2023-04-01T13:45:42;6.20;;;4.70;;
7833;SDS011;3962;42.696;23.354;2023-04-01T13:48:27;8.43;;;4.57;;
7833;SDS011;3962;42.696;23.354;2023-04-01T13:54:12;8.50;;;4.00;;
7833;SDS011;3962;42.696;23.354;2023-04-01T13:56:57;7.40;;;5.00;;
7833;SDS011;3962;42.696;23.354;2023-04-01T14:05:55;7.60;;;4.70;;
7833;SDS011;3962;42.696;23.354;2023-04-01T14:08:35;5.47;;;3.90;;
7833;SDS011;3962;42.696;23.354;2023-04-01T14:11:16;7.70;;;4.40;;
7833;SDS011;3962;42.696;23.354;2023-04-01T14:13:56;6.93;;;3.73;;
7833;SDS011;3962;42.696;23.354;2023-04-01T14:19:39;10.37;;;4.33;;
7833;SDS011;3962;42.696;23.354;2023-04-01T14:22:32;5.30;;;3.23;;
7833;SDS011;3962;42.696;23.354;2023-04-01T14:25:25;3.83;;;3.20;;
7833;SDS011;3962;42.696;23.354;2023-04-01T14:28:15;4.20;;;3.07;;
7833;SDS011;3962;42.696;23.354;2023-04-01T14:30:53;6.97;;;3.30;;
7833;SDS011;3962;42.696;23.354;2023-04-01T14:33:38;4.40;;;3.00;;
7833;SDS011;3962;42.696;23.354;2023-04-01T14:36:21;9.13;;;3.37;;
7833;SDS011;3962;42.696;23.354;2023-04-01T14:39:10;5.07;;;3.27;;
7833;SDS011;3962;42.696;23.354;2023-04-01T14:41:51;4.40;;;3.27;;
7833;SDS011;3962;42.696;23.354;2023-04-01T14:44:38;4.73;;;2.97;;
7833;SDS011;3962;42.696;23.354;2023-04-01T14:47:26;5.27;;;3.23;;
7833;SDS011;3962;42.696;23.354;2023-04-01T14:50:08;6.90;;;3.90;;
7833;SDS011;3962;42.696;23.354;2023-04-01T14:52:40;8.93;;;4.70;;
7833;SDS011;3962;42.696;23.354;2023-04-01T14:55:25;8.50;;;4.37;;
7833;SDS011;3962;42.696;23.354;2023-04-01T14:57:58;7.57;;;4.40;;
7833;SDS011;3962;42.696;23.354;2023-04-01T15:00:37;6.00;;;3.53;;
7833;SDS011;3962;42.696;23.354;2023-04-01T15:03:15;9.53;;;3.77;;
7833;SDS011;3962;42.696;23.354;2023-04-01T15:05:49;5.60;;;3.10;;
7833;SDS011;3962;42.696;23.354;2023-04-01T15:08:22;5.93;;;2.83;;
7833;SDS011;3962;42.696;23.354;2023-04-01T15:16:59;9.03;;;4.90;;
7833;SDS011;3962;42.696;23.354;2023-04-01T15:19:39;14.40;;;6.67;;
7833;SDS011;3962;42.696;23.354;2023-04-01T15:22:32;15.13;;;4.00;;
7833;SDS011;3962;42.696;23.354;2023-04-01T15:25:18;6.23;;;4.13;;
7833;SDS011;3962;42.696;23.354;2023-04-01T15:28:05;10.00;;;4.30;;
7833;SDS011;3962;42.696;23.354;2023-04-01T15:30:38;7.30;;;3.80;;
7833;SDS011;3962;42.696;23.354;2023-04-01T15:36:18;7.53;;;3.77;;
7833;SDS011;3962;42.696;23.354;2023-04-01T15:38:58;5.17;;;3.80;;
7833;SDS011;3962;42.696;23.354;2023-04-01T15:41:35;13.63;;;4.40;;
7833;SDS011;3962;42.696;23.354;2023-04-01T15:47:06;9.00;;;4.60;;
7833;SDS011;3962;42.696;23.354;2023-04-01T15:49:52;12.27;;;5.20;;
7833;SDS011;3962;42.696;23.354;2023-04-01T15:52:34;14.50;;;5.97;;
7833;SDS011;3962;42.696;23.354;2023-04-01T15:55:19;6.37;;;3.57;;
7833;SDS011;3962;42.696;23.354;2023-04-01T15:58:00;6.63;;;2.80;;
7833;SDS011;3962;42.696;23.354;2023-04-01T16:00:46;4.00;;;2.83;;
7833;SDS011;3962;42.696;23.354;2023-04-01T16:03:23;5.60;;;3.20;;
7833;SDS011;3962;42.696;23.354;2023-04-01T16:06:13;5.50;;;4.13;;
7833;SDS011;3962;42.696;23.354;2023-04-01T16:09:02;3.80;;;3.37;;
7833;SDS011;3962;42.696;23.354;2023-04-01T16:11:46;5.10;;;4.13;;
7833;SDS011;3962;42.696;23.354;2023-04-01T16:14:25;6.30;;;3.95;;
7833;SDS011;3962;42.696;23.354;2023-04-01T16:17:16;8.07;;;4.43;;
7833;SDS011;3962;42.696;23.354;2023-04-01T16:20:00;6.40;;;4.40;;
7833;SDS011;3962;42.696;23.354;2023-04-01T16:22:31;7.30;;;4.47;;
7833;SDS011;3962;42.696;23.354;2023-04-01T16:25:14;5.47;;;4.23;;
7833;SDS011;3962;42.696;23.354;2023-04-01T16:27:47;6.23;;;4.83;;
7833;SDS011;3962;42.696;23.354;2023-04-01T16:30:26;9.30;;;5.73;;
7833;SDS011;3962;42.696;23.354;2023-04-01T16:33:04;8.10;;;5.57;;
7833;SDS011;3962;42.696;23.354;2023-04-01T16:35:41;7.50;;;5.13;;
7833;SDS011;3962;42.696;23.354;2023-04-01T16:38:16;6.43;;;4.50;;
7833;SDS011;3962;42.696;23.354;2023-04-01T16:40:52;5.13;;;4.30;;
7833;SDS011;3962;42.696;23.354;2023-04-01T16:43:35;7.43;;;5.17;;
7833;SDS011;3962;42.696;23.354;2023-04-01T16:49:07;6.93;;;4.50;;
7833;SDS011;3962;42.696;23.354;2023-04-01T16:51:52;4.30;;;3.73;;
7833;SDS011;3962;42.696;23.354;2023-04-01T16:54:27;5.73;;;3.80;;
7833;SDS011;3962;42.696;23.354;2023-04-01T16:57:02;4.27;;;3.20;;
7833;SDS011;3962;42.696;23.354;2023-04-01T16:59:34;4.93;;;3.63;;
7833;SDS011;3962;42.696;23.354;2023-04-01T17:02:04;5.20;;;3.70;;
7833;SDS011;3962;42.696;23.354;2023-04-01T17:04:40;3.87;;;3.07;;
7833;SDS011;3962;42.696;23.354;2023-04-01T17:07:19;5.63;;;4.00;;
7833;SDS011;3962;42.696;23.354;2023-04-01T17:09:59;4.10;;;3.20;;
7833;SDS011;3962;42.696;23.354;2023-04-01T17:12:34;3.73;;;3.00;;
7833;SDS011;3962;42.696;23.354;2023-04-01T17:15:11;4.90;;;3.20;;
7833;SDS011;3962;42.696;23.354;2023-04-01T17:17:49;3.53;;;3.00;;
7833;SDS011;3962;42.696;23.354;2023-04-01T17:20:31;4.77;;;3.60;;
7833;SDS011;3962;42.696;23.354;2023-04-01T17:23:10;4.50;;;3.50;;
7833;SDS011;3962;42.696;23.354;2023-04-01T17:25:47;4.83;;;3.40;;